sensor_id;sensor_type;location;lat;lon;timestamp;pressure;altitude;pressure_sealevel;temperature;humidity
26699;BME280;14313;50.892;13.756;2022-08-19T00:01:46;97006.66;;;24.16;80.34
26699;BME280;14313;50.892;13.756;2022-08-19T00:04:14;97013.72;;;24.22;79.77
26699;BME280;14313;50.892;13.756;2022-08-19T00:06:42;97013.19;;;24.20;79.78
26699;BME280;14313;50.892;13.756;2022-08-19T00:09:10;97011.97;;;23.84;82.10
26699;BME280;14313;50.892;13.756;2022-08-19T00:11:37;97017.84;;;24.30;79.64
26699;BME280;14313;50.892;13.756;2022-08-19T00:14:03;97024.94;;;23.87;82.17
26699;BME280;14313;50.892;13.756;2022-08-19T00:16:29;97027.50;;;23.77;82.33
26699;BME280;14313;50.892;13.756;2022-08-19T00:18:54;97031.84;;;24.05;81.23
26699;BME280;14313;50.892;13.756;2022-08-19T00:21:21;97038.09;;;23.84;82.36
26699;BME280;14313;50.892;13.756;2022-08-19T00:23:46;97026.91;;;23.97;81.71
26699;BME280;14313;50.892;13.756;2022-08-19T00:26:11;97032.75;;;23.89;81.30
26699;BME280;14313;50.892;13.756;2022-08-19T00:28:37;97025.13;;;23.54;83.55
26699;BME280;14313;50.892;13.756;2022-08-19T00:31:03;97034.25;;;23.53;83.74
26699;BME280;14313;50.892;13.756;2022-08-19T00:33:30;97028.25;;;23.94;81.85
26699;BME280;14313;50.892;13.756;2022-08-19T00:35:59;97029.19;;;23.83;81.82
26699;BME280;14313;50.892;13.756;2022-08-19T00:38:24;97030.44;;;23.75;82.39
26699;BME280;14313;50.892;13.756;2022-08-19T00:40:50;97034.50;;;24.00;81.63
26699;BME280;14313;50.892;13.756;2022-08-19T00:43:19;97030.63;;;23.91;81.97
26699;BME280;14313;50.892;13.756;2022-08-19T00:45:45;97036.88;;;23.69;83.03
26699;BME280;14313;50.892;13.756;2022-08-19T00:48:10;97042.47;;;23.90;82.38
26699;BME280;14313;50.892;13.756;2022-08-19T00:50:39;97035.00;;;23.97;81.30
26699;BME280;14313;50.892;13.756;2022-08-19T00:53:09;97037.44;;;23.98;81.95
26699;BME280;14313;50.892;13.756;2022-08-19T00:55:35;97033.19;;;23.80;82.57
26699;BME280;14313;50.892;13.756;2022-08-19T00:58:09;97029.94;;;24.00;81.36
26699;BME280;14313;50.892;13.756;2022-08-19T01:00:36;97032.34;;;24.02;82.09
26699;BME280;14313;50.892;13.756;2022-08-19T01:03:13;97038.66;;;24.12;81.26
26699;BME280;14313;50.892;13.756;2022-08-19T01:05:41;97040.28;;;23.87;82.44
26699;BME280;14313;50.892;13.756;2022-08-19T01:08:07;97051.75;;;24.26;81.08
26699;BME280;14313;50.892;13.756;2022-08-19T01:10:37;97054.66;;;24.19;81.17
26699;BME280;14313;50.892;13.756;2022-08-19T01:13:04;97061.69;;;23.98;82.04
26699;BME280;14313;50.892;13.756;2022-08-19T01:15:32;97072.88;;;23.85;82.98
26699;BME280;14313;50.892;13.756;2022-08-19T01:18:01;97067.22;;;24.13;81.53
26699;BME280;14313;50.892;13.756;2022-08-19T01:20:29;97066.06;;;24.04;81.03
26699;BME280;14313;50.892;13.756;2022-08-19T01:22:56;97055.78;;;24.01;82.00
26699;BME280;14313;50.892;13.756;2022-08-19T01:25:26;97062.97;;;23.69;83.98
26699;BME280;14313;50.892;13.756;2022-08-19T01:27:53;97062.44;;;23.94;82.89
26699;BME280;14313;50.892;13.756;2022-08-19T01:30:25;97063.91;;;23.79;83.38
26699;BME280;14313;50.892;13.756;2022-08-19T01:32:52;97051.31;;;23.85;83.67
26699;BME280;14313;50.892;13.756;2022-08-19T01:35:18;97054.09;;;23.68;84.65
26699;BME280;14313;50.892;13.756;2022-08-19T01:37:50;97049.69;;;23.84;83.94
26699;BME280;14313;50.892;13.756;2022-08-19T01:40:18;97046.47;;;23.87;83.82
26699;BME280;14313;50.892;13.756;2022-08-19T01:42:47;97051.19;;;24.02;82.89
26699;BME280;14313;50.892;13.756;2022-08-19T01:45:13;97050.56;;;23.90;83.49
26699;BME280;14313;50.892;13.756;2022-08-19T01:47:38;97061.75;;;23.82;84.21
26699;BME280;14313;50.892;13.756;2022-08-19T01:50:06;97051.44;;;23.73;84.69
26699;BME280;14313;50.892;13.756;2022-08-19T01:52:35;97051.94;;;23.70;84.96
26699;BME280;14313;50.892;13.756;2022-08-19T01:55:00;97035.19;;;23.63;86.12
26699;BME280;14313;50.892;13.756;2022-08-19T01:57:25;97024.47;;;23.47;87.01
26699;BME280;14313;50.892;13.756;2022-08-19T01:59:51;97020.72;;;23.69;85.57
26699;BME280;14313;50.892;13.756;2022-08-19T02:02:16;97025.16;;;23.59;86.20
26699;BME280;14313;50.892;13.756;2022-08-19T02:04:42;97037.28;;;23.83;85.57
26699;BME280;14313;50.892;13.756;2022-08-19T02:07:07;97039.91;;;23.78;85.81
26699;BME280;14313;50.892;13.756;2022-08-19T02:09:33;97050.50;;;23.85;85.23
26699;BME280;14313;50.892;13.756;2022-08-19T02:11:58;97052.03;;;23.54;87.84
26699;BME280;14313;50.892;13.756;2022-08-19T02:14:24;97050.81;;;23.66;86.68
26699;BME280;14313;50.892;13.756;2022-08-19T02:16:49;97047.09;;;23.94;84.78
26699;BME280;14313;50.892;13.756;2022-08-19T02:19:14;97057.00;;;23.45;87.53
26699;BME280;14313;50.892;13.756;2022-08-19T02:21:40;97050.63;;;23.95;85.41
26699;BME280;14313;50.892;13.756;2022-08-19T02:24:05;97051.84;;;23.87;85.49
26699;BME280;14313;50.892;13.756;2022-08-19T02:26:32;97048.88;;;23.84;86.32
26699;BME280;14313;50.892;13.756;2022-08-19T02:28:57;97055.44;;;23.93;85.67
26699;BME280;14313;50.892;13.756;2022-08-19T02:31:24;97056.31;;;23.76;86.32
26699;BME280;14313;50.892;13.756;2022-08-19T02:33:50;97051.47;;;24.00;84.94
26699;BME280;14313;50.892;13.756;2022-08-19T02:36:18;97058.06;;;23.44;88.25
26699;BME280;14313;50.892;13.756;2022-08-19T02:38:44;97049.75;;;23.67;87.11
26699;BME280;14313;50.892;13.756;2022-08-19T02:41:16;97043.72;;;23.82;86.57
26699;BME280;14313;50.892;13.756;2022-08-19T02:43:42;97046.19;;;23.84;87.01
26699;BME280;14313;50.892;13.756;2022-08-19T02:46:15;97041.28;;;24.07;85.09
26699;BME280;14313;50.892;13.756;2022-08-19T02:48:43;97051.44;;;24.22;84.73
26699;BME280;14313;50.892;13.756;2022-08-19T02:51:08;97059.84;;;24.04;85.32
26699;BME280;14313;50.892;13.756;2022-08-19T02:53:33;97063.91;;;24.06;85.56
26699;BME280;14313;50.892;13.756;2022-08-19T02:55:59;97064.59;;;23.70;87.11
26699;BME280;14313;50.892;13.756;2022-08-19T02:58:24;97058.13;;;23.93;86.10
26699;BME280;14313;50.892;13.756;2022-08-19T03:00:54;97056.00;;;23.95;86.29
26699;BME280;14313;50.892;13.756;2022-08-19T03:03:20;97056.34;;;24.03;85.43
26699;BME280;14313;50.892;13.756;2022-08-19T03:05:46;97061.00;;;23.86;86.96
26699;BME280;14313;50.892;13.756;2022-08-19T03:08:13;97057.06;;;23.50;88.98
26699;BME280;14313;50.892;13.756;2022-08-19T03:10:44;97052.28;;;23.35;89.76
26699;BME280;14313;50.892;13.756;2022-08-19T03:13:11;97059.94;;;23.65;88.60
26699;BME280;14313;50.892;13.756;2022-08-19T03:15:42;97065.16;;;23.72;87.84
26699;BME280;14313;50.892;13.756;2022-08-19T03:18:07;97063.53;;;23.49;88.86
26699;BME280;14313;50.892;13.756;2022-08-19T03:20:33;97061.81;;;23.87;86.97
26699;BME280;14313;50.892;13.756;2022-08-19T03:22:58;97067.22;;;23.65;88.24
26699;BME280;14313;50.892;13.756;2022-08-19T03:25:23;97073.56;;;23.37;89.90
26699;BME280;14313;50.892;13.756;2022-08-19T03:27:49;97067.19;;;23.43;90.50
26699;BME280;14313;50.892;13.756;2022-08-19T03:30:14;97075.16;;;23.76;88.77
26699;BME280;14313;50.892;13.756;2022-08-19T03:32:40;97072.97;;;23.95;87.18
26699;BME280;14313;50.892;13.756;2022-08-19T03:35:06;97091.78;;;24.17;85.69
26699;BME280;14313;50.892;13.756;2022-08-19T03:37:31;97080.94;;;24.12;85.77
26699;BME280;14313;50.892;13.756;2022-08-19T03:39:57;97081.72;;;23.86;87.36
26699;BME280;14313;50.892;13.756;2022-08-19T03:42:22;97073.53;;;23.75;88.66
26699;BME280;14313;50.892;13.756;2022-08-19T03:44:47;97073.28;;;23.77;88.18
26699;BME280;14313;50.892;13.756;2022-08-19T03:47:13;97073.91;;;23.84;87.88
26699;BME280;14313;50.892;13.756;2022-08-19T03:49:41;97068.50;;;24.06;86.43
26699;BME280;14313;50.892;13.756;2022-08-19T03:52:06;97065.59;;;24.12;86.52
26699;BME280;14313;50.892;13.756;2022-08-19T03:54:32;97067.69;;;24.05;86.56
26699;BME280;14313;50.892;13.756;2022-08-19T03:56:58;97062.78;;;24.02;86.90
26699;BME280;14313;50.892;13.756;2022-08-19T03:59:30;97054.69;;;23.75;88.12
26699;BME280;14313;50.892;13.756;2022-08-19T04:01:58;97066.59;;;23.58;89.48
26699;BME280;14313;50.892;13.756;2022-08-19T04:04:24;97061.72;;;24.03;87.16
26699;BME280;14313;50.892;13.756;2022-08-19T04:06:49;97068.72;;;23.77;87.57
26699;BME280;14313;50.892;13.756;2022-08-19T04:09:16;97062.63;;;23.87;87.68
26699;BME280;14313;50.892;13.756;2022-08-19T04:11:45;97056.25;;;23.50;89.59
26699;BME280;14313;50.892;13.756;2022-08-19T04:14:14;97064.41;;;23.55;90.17
26699;BME280;14313;50.892;13.756;2022-08-19T04:16:40;97059.00;;;23.76;88.48
26699;BME280;14313;50.892;13.756;2022-08-19T04:19:05;97050.63;;;23.95;87.97
26699;BME280;14313;50.892;13.756;2022-08-19T04:21:32;97059.50;;;23.95;87.27
26699;BME280;14313;50.892;13.756;2022-08-19T04:23:57;97068.13;;;23.97;87.00
26699;BME280;14313;50.892;13.756;2022-08-19T04:26:26;97084.19;;;23.87;87.94
26699;BME280;14313;50.892;13.756;2022-08-19T04:28:53;97080.06;;;23.58;89.50
26699;BME280;14313;50.892;13.756;2022-08-19T04:31:21;97074.56;;;23.96;87.67
26699;BME280;14313;50.892;13.756;2022-08-19T04:33:48;97063.63;;;23.81;88.56
26699;BME280;14313;50.892;13.756;2022-08-19T04:36:18;97061.41;;;23.73;88.68
26699;BME280;14313;50.892;13.756;2022-08-19T04:38:46;97057.06;;;23.94;87.45
26699;BME280;14313;50.892;13.756;2022-08-19T04:41:12;97076.97;;;23.71;89.28
26699;BME280;14313;50.892;13.756;2022-08-19T04:43:56;97070.41;;;23.62;89.95
26699;BME280;14313;50.892;13.756;2022-08-19T04:46:21;97071.59;;;23.71;89.31
26699;BME280;14313;50.892;13.756;2022-08-19T04:48:46;97070.47;;;23.45;90.81
26699;BME280;14313;50.892;13.756;2022-08-19T04:51:12;97073.78;;;23.52;90.63
26699;BME280;14313;50.892;13.756;2022-08-19T04:53:39;97069.94;;;23.92;88.59
26699;BME280;14313;50.892;13.756;2022-08-19T04:56:12;97058.53;;;23.79;88.91
26699;BME280;14313;50.892;13.756;2022-08-19T04:58:41;97067.47;;;23.85;88.02
26699;BME280;14313;50.892;13.756;2022-08-19T05:01:08;97062.91;;;23.64;89.48
26699;BME280;14313;50.892;13.756;2022-08-19T05:03:34;97073.47;;;23.92;88.18
26699;BME280;14313;50.892;13.756;2022-08-19T05:06:07;97081.06;;;23.73;88.95
26699;BME280;14313;50.892;13.756;2022-08-19T05:08:35;97083.97;;;24.15;87.24
26699;BME280;14313;50.892;13.756;2022-08-19T05:11:06;97102.91;;;23.99;87.94
26699;BME280;14313;50.892;13.756;2022-08-19T05:13:32;97109.88;;;23.95;88.51
26699;BME280;14313;50.892;13.756;2022-08-19T05:15:58;97121.66;;;23.50;90.96
26699;BME280;14313;50.892;13.756;2022-08-19T05:18:24;97117.22;;;23.61;90.29
26699;BME280;14313;50.892;13.756;2022-08-19T05:21:11;97127.25;;;23.65;90.54
26699;BME280;14313;50.892;13.756;2022-08-19T05:23:55;97129.88;;;23.82;89.66
26699;BME280;14313;50.892;13.756;2022-08-19T05:26:20;97122.06;;;24.02;88.66
26699;BME280;14313;50.892;13.756;2022-08-19T05:28:46;97137.78;;;23.67;90.16
26699;BME280;14313;50.892;13.756;2022-08-19T05:31:11;97127.56;;;23.91;88.57
26699;BME280;14313;50.892;13.756;2022-08-19T05:33:37;97125.44;;;23.71;90.06
26699;BME280;14313;50.892;13.756;2022-08-19T05:36:05;97132.03;;;23.80;90.10
26699;BME280;14313;50.892;13.756;2022-08-19T05:38:30;97135.28;;;23.44;91.19
26699;BME280;14313;50.892;13.756;2022-08-19T05:40:56;97133.22;;;22.95;94.20
26699;BME280;14313;50.892;13.756;2022-08-19T05:43:21;97143.00;;;23.18;93.29
26699;BME280;14313;50.892;13.756;2022-08-19T05:45:47;97147.47;;;23.13;93.54
26699;BME280;14313;50.892;13.756;2022-08-19T05:48:13;97157.81;;;23.04;93.78
26699;BME280;14313;50.892;13.756;2022-08-19T05:50:40;97168.09;;;22.90;95.33
26699;BME280;14313;50.892;13.756;2022-08-19T05:53:06;97161.31;;;23.05;94.51
26699;BME280;14313;50.892;13.756;2022-08-19T05:55:32;97173.72;;;23.22;93.35
26699;BME280;14313;50.892;13.756;2022-08-19T05:57:57;97176.22;;;23.29;93.48
26699;BME280;14313;50.892;13.756;2022-08-19T06:00:22;97184.28;;;23.29;93.28
26699;BME280;14313;50.892;13.756;2022-08-19T06:02:48;97185.16;;;23.13;92.91
26699;BME280;14313;50.892;13.756;2022-08-19T06:05:14;97192.06;;;23.25;93.00
26699;BME280;14313;50.892;13.756;2022-08-19T06:07:40;97195.56;;;23.26;92.89
26699;BME280;14313;50.892;13.756;2022-08-19T06:10:08;97208.03;;;23.32;92.64
26699;BME280;14313;50.892;13.756;2022-08-19T06:12:34;97212.59;;;23.31;92.50
26699;BME280;14313;50.892;13.756;2022-08-19T06:15:02;97223.00;;;23.45;91.73
26699;BME280;14313;50.892;13.756;2022-08-19T06:17:29;97229.94;;;23.24;92.34
26699;BME280;14313;50.892;13.756;2022-08-19T06:19:55;97226.84;;;22.99;93.84
26699;BME280;14313;50.892;13.756;2022-08-19T06:22:20;97232.56;;;23.02;93.71
26699;BME280;14313;50.892;13.756;2022-08-19T06:24:46;97231.56;;;22.91;94.57
26699;BME280;14313;50.892;13.756;2022-08-19T06:27:11;97235.91;;;23.09;93.18
26699;BME280;14313;50.892;13.756;2022-08-19T06:29:37;97241.59;;;22.96;93.68
26699;BME280;14313;50.892;13.756;2022-08-19T06:32:03;97250.19;;;23.26;92.13
26699;BME280;14313;50.892;13.756;2022-08-19T06:34:31;97239.50;;;22.98;93.39
26699;BME280;14313;50.892;13.756;2022-08-19T06:36:58;97252.94;;;23.15;92.88
26699;BME280;14313;50.892;13.756;2022-08-19T06:39:29;97249.53;;;23.19;92.77
26699;BME280;14313;50.892;13.756;2022-08-19T06:41:57;97265.28;;;23.27;92.54
26699;BME280;14313;50.892;13.756;2022-08-19T06:44:24;97267.22;;;23.32;91.67
26699;BME280;14313;50.892;13.756;2022-08-19T06:46:51;97256.44;;;23.15;92.57
26699;BME280;14313;50.892;13.756;2022-08-19T06:49:17;97266.72;;;23.35;92.07
26699;BME280;14313;50.892;13.756;2022-08-19T06:51:45;97269.25;;;23.25;92.51
26699;BME280;14313;50.892;13.756;2022-08-19T06:54:12;97266.00;;;23.39;92.06
26699;BME280;14313;50.892;13.756;2022-08-19T06:56:37;97266.81;;;23.07;92.85
26699;BME280;14313;50.892;13.756;2022-08-19T06:59:08;97262.25;;;23.41;91.51
26699;BME280;14313;50.892;13.756;2022-08-19T07:01:54;97258.63;;;23.63;90.25
26699;BME280;14313;50.892;13.756;2022-08-19T07:04:23;97251.50;;;23.41;91.38
26699;BME280;14313;50.892;13.756;2022-08-19T07:06:50;97253.13;;;23.25;91.65
26699;BME280;14313;50.892;13.756;2022-08-19T07:09:21;97266.69;;;23.47;90.77
26699;BME280;14313;50.892;13.756;2022-08-19T07:11:50;97278.00;;;23.32;91.82
26699;BME280;14313;50.892;13.756;2022-08-19T07:14:19;97284.13;;;23.44;91.05
26699;BME280;14313;50.892;13.756;2022-08-19T07:16:47;97288.31;;;23.52;90.70
26699;BME280;14313;50.892;13.756;2022-08-19T07:19:13;97283.31;;;23.60;89.39
26699;BME280;14313;50.892;13.756;2022-08-19T07:21:40;97280.38;;;23.78;88.69
26699;BME280;14313;50.892;13.756;2022-08-19T07:24:06;97283.63;;;23.80;88.53
26699;BME280;14313;50.892;13.756;2022-08-19T07:26:37;97273.66;;;23.81;89.05
26699;BME280;14313;50.892;13.756;2022-08-19T07:29:04;97272.97;;;23.69;88.53
26699;BME280;14313;50.892;13.756;2022-08-19T07:31:29;97270.66;;;23.77;90.20
26699;BME280;14313;50.892;13.756;2022-08-19T07:33:55;97267.31;;;23.70;89.49
26699;BME280;14313;50.892;13.756;2022-08-19T07:36:27;97276.06;;;23.77;89.32
26699;BME280;14313;50.892;13.756;2022-08-19T07:38:58;97280.53;;;23.89;88.83
26699;BME280;14313;50.892;13.756;2022-08-19T07:41:25;97276.66;;;24.18;88.17
26699;BME280;14313;50.892;13.756;2022-08-19T07:43:51;97272.91;;;23.86;88.57
26699;BME280;14313;50.892;13.756;2022-08-19T07:46:18;97268.13;;;23.88;89.28
26699;BME280;14313;50.892;13.756;2022-08-19T07:48:46;97276.47;;;24.08;88.45
26699;BME280;14313;50.892;13.756;2022-08-19T07:51:12;97275.41;;;24.47;87.08
26699;BME280;14313;50.892;13.756;2022-08-19T07:53:38;97282.34;;;24.21;86.45
26699;BME280;14313;50.892;13.756;2022-08-19T07:56:04;97293.53;;;24.13;88.22
26699;BME280;14313;50.892;13.756;2022-08-19T07:58:36;97292.22;;;24.16;89.33
26699;BME280;14313;50.892;13.756;2022-08-19T08:01:04;97293.91;;;24.39;87.70
26699;BME280;14313;50.892;13.756;2022-08-19T08:03:30;97295.34;;;24.08;88.38
26699;BME280;14313;50.892;13.756;2022-08-19T08:06:14;97302.66;;;24.12;88.75
26699;BME280;14313;50.892;13.756;2022-08-19T08:08:59;97292.16;;;24.49;87.58
26699;BME280;14313;50.892;13.756;2022-08-19T08:11:39;97296.06;;;24.42;87.77
26699;BME280;14313;50.892;13.756;2022-08-19T08:14:05;97301.84;;;24.29;88.53
26699;BME280;14313;50.892;13.756;2022-08-19T08:16:35;97304.97;;;24.42;87.46
26699;BME280;14313;50.892;13.756;2022-08-19T08:19:03;97305.66;;;24.33;88.02
26699;BME280;14313;50.892;13.756;2022-08-19T08:21:29;97304.44;;;24.40;87.96
26699;BME280;14313;50.892;13.756;2022-08-19T08:23:54;97305.94;;;24.53;88.13
26699;BME280;14313;50.892;13.756;2022-08-19T08:26:20;97307.97;;;24.68;87.40
26699;BME280;14313;50.892;13.756;2022-08-19T08:28:45;97316.94;;;24.73;87.02
26699;BME280;14313;50.892;13.756;2022-08-19T08:31:12;97317.38;;;24.21;89.01
26699;BME280;14313;50.892;13.756;2022-08-19T08:33:37;97313.66;;;24.06;89.79
26699;BME280;14313;50.892;13.756;2022-08-19T08:36:06;97314.78;;;24.10;89.83
26699;BME280;14313;50.892;13.756;2022-08-19T08:38:32;97307.13;;;24.40;88.57
26699;BME280;14313;50.892;13.756;2022-08-19T08:41:02;97299.94;;;24.46;88.76
26699;BME280;14313;50.892;13.756;2022-08-19T08:43:37;97311.97;;;24.21;89.38
26699;BME280;14313;50.892;13.756;2022-08-19T08:46:13;97313.97;;;24.26;89.40
26699;BME280;14313;50.892;13.756;2022-08-19T08:48:52;97315.16;;;24.35;89.10
26699;BME280;14313;50.892;13.756;2022-08-19T08:51:29;97308.19;;;24.39;87.30
26699;BME280;14313;50.892;13.756;2022-08-19T08:53:58;97318.66;;;24.36;88.03
26699;BME280;14313;50.892;13.756;2022-08-19T08:56:24;97322.50;;;24.40;87.76
26699;BME280;14313;50.892;13.756;2022-08-19T08:59:04;97315.91;;;24.31;88.68
26699;BME280;14313;50.892;13.756;2022-08-19T09:01:32;97316.84;;;23.86;90.77
26699;BME280;14313;50.892;13.756;2022-08-19T09:03:57;97329.47;;;24.02;90.54
26699;BME280;14313;50.892;13.756;2022-08-19T09:06:38;97326.53;;;24.04;90.27
26699;BME280;14313;50.892;13.756;2022-08-19T09:09:14;97331.63;;;24.00;91.08
26699;BME280;14313;50.892;13.756;2022-08-19T09:11:49;97321.53;;;24.12;89.60
26699;BME280;14313;50.892;13.756;2022-08-19T09:14:35;97322.75;;;24.60;87.63
26699;BME280;14313;50.892;13.756;2022-08-19T09:17:02;97319.66;;;24.95;85.43
26699;BME280;14313;50.892;13.756;2022-08-19T09:19:35;97326.88;;;24.89;84.08
26699;BME280;14313;50.892;13.756;2022-08-19T09:22:00;97316.47;;;25.25;83.34
26699;BME280;14313;50.892;13.756;2022-08-19T09:24:26;97314.81;;;25.51;81.81
26699;BME280;14313;50.892;13.756;2022-08-19T09:26:51;97313.44;;;25.48;81.60
26699;BME280;14313;50.892;13.756;2022-08-19T09:29:17;97308.94;;;25.00;82.34
26699;BME280;14313;50.892;13.756;2022-08-19T09:31:42;97314.63;;;25.03;82.21
26699;BME280;14313;50.892;13.756;2022-08-19T09:34:07;97308.06;;;25.21;82.04
26699;BME280;14313;50.892;13.756;2022-08-19T09:36:33;97304.69;;;25.09;82.07
26699;BME280;14313;50.892;13.756;2022-08-19T09:39:02;97304.28;;;25.49;81.16
26699;BME280;14313;50.892;13.756;2022-08-19T09:41:27;97308.44;;;25.35;81.11
26699;BME280;14313;50.892;13.756;2022-08-19T09:43:54;97315.63;;;25.24;81.53
26699;BME280;14313;50.892;13.756;2022-08-19T09:46:22;97323.09;;;25.71;80.26
26699;BME280;14313;50.892;13.756;2022-08-19T09:48:48;97322.84;;;25.72;79.24
26699;BME280;14313;50.892;13.756;2022-08-19T09:51:21;97321.22;;;25.71;80.35
26699;BME280;14313;50.892;13.756;2022-08-19T09:53:49;97319.44;;;25.87;79.15
26699;BME280;14313;50.892;13.756;2022-08-19T09:56:20;97313.75;;;25.83;79.49
26699;BME280;14313;50.892;13.756;2022-08-19T09:58:46;97311.38;;;25.92;78.02
26699;BME280;14313;50.892;13.756;2022-08-19T10:01:26;97317.72;;;25.76;79.30
26699;BME280;14313;50.892;13.756;2022-08-19T10:03:54;97320.50;;;26.23;78.01
26699;BME280;14313;50.892;13.756;2022-08-19T10:06:24;97327.25;;;26.20;77.73
26699;BME280;14313;50.892;13.756;2022-08-19T10:08:51;97329.25;;;25.98;77.81
26699;BME280;14313;50.892;13.756;2022-08-19T10:11:19;97338.00;;;26.62;76.47
26699;BME280;14313;50.892;13.756;2022-08-19T10:13:45;97336.03;;;27.00;73.06
26699;BME280;14313;50.892;13.756;2022-08-19T10:16:14;97334.38;;;26.89;73.84
26699;BME280;14313;50.892;13.756;2022-08-19T10:18:41;97338.56;;;27.47;72.27
26699;BME280;14313;50.892;13.756;2022-08-19T10:21:12;97340.53;;;26.79;72.92
26699;BME280;14313;50.892;13.756;2022-08-19T10:23:40;97347.41;;;26.97;72.70
26699;BME280;14313;50.892;13.756;2022-08-19T10:26:10;97334.53;;;26.67;73.17
26699;BME280;14313;50.892;13.756;2022-08-19T10:28:36;97341.72;;;26.41;73.64
26699;BME280;14313;50.892;13.756;2022-08-19T10:31:15;97341.19;;;26.07;75.82
26699;BME280;14313;50.892;13.756;2022-08-19T10:33:42;97341.81;;;25.51;78.23
26699;BME280;14313;50.892;13.756;2022-08-19T10:36:11;97352.59;;;25.19;79.80
26699;BME280;14313;50.892;13.756;2022-08-19T10:38:38;97350.63;;;25.68;78.85
26699;BME280;14313;50.892;13.756;2022-08-19T10:41:17;97352.69;;;25.87;78.19
26699;BME280;14313;50.892;13.756;2022-08-19T10:43:43;97358.16;;;25.98;77.71
26699;BME280;14313;50.892;13.756;2022-08-19T10:46:12;97350.69;;;26.47;75.17
26699;BME280;14313;50.892;13.756;2022-08-19T10:48:39;97356.38;;;27.18;72.51
26699;BME280;14313;50.892;13.756;2022-08-19T10:51:05;97356.22;;;27.70;70.99
26699;BME280;14313;50.892;13.756;2022-08-19T10:53:50;97360.13;;;28.78;65.36
26699;BME280;14313;50.892;13.756;2022-08-19T10:56:16;97360.09;;;28.89;65.93
26699;BME280;14313;50.892;13.756;2022-08-19T10:59:00;97371.13;;;28.23;67.37
26699;BME280;14313;50.892;13.756;2022-08-19T11:01:29;97381.06;;;27.36;69.78
26699;BME280;14313;50.892;13.756;2022-08-19T11:03:56;97383.69;;;27.11;70.75
26699;BME280;14313;50.892;13.756;2022-08-19T11:06:23;97379.09;;;26.17;73.92
26699;BME280;14313;50.892;13.756;2022-08-19T11:08:51;97372.41;;;25.56;76.40
26699;BME280;14313;50.892;13.756;2022-08-19T11:11:16;97380.63;;;25.71;76.09
26699;BME280;14313;50.892;13.756;2022-08-19T11:13:42;97375.34;;;26.18;75.66
26699;BME280;14313;50.892;13.756;2022-08-19T11:16:14;97377.41;;;26.43;74.61
26699;BME280;14313;50.892;13.756;2022-08-19T11:18:46;97375.41;;;26.76;73.61
26699;BME280;14313;50.892;13.756;2022-08-19T11:21:19;97378.25;;;27.01;72.12
26699;BME280;14313;50.892;13.756;2022-08-19T11:23:49;97386.47;;;26.69;73.44
26699;BME280;14313;50.892;13.756;2022-08-19T11:26:16;97386.25;;;26.28;73.79
26699;BME280;14313;50.892;13.756;2022-08-19T11:28:41;97373.06;;;26.94;72.33
26699;BME280;14313;50.892;13.756;2022-08-19T11:31:17;97386.19;;;27.28;70.98
26699;BME280;14313;50.892;13.756;2022-08-19T11:33:43;97377.97;;;26.92;72.05
26699;BME280;14313;50.892;13.756;2022-08-19T11:36:09;97378.16;;;26.81;71.50
26699;BME280;14313;50.892;13.756;2022-08-19T11:38:35;97374.38;;;27.54;69.76
26699;BME280;14313;50.892;13.756;2022-08-19T11:41:06;97375.19;;;27.85;68.22
26699;BME280;14313;50.892;13.756;2022-08-19T11:43:32;97379.56;;;28.16;67.27
26699;BME280;14313;50.892;13.756;2022-08-19T11:45:58;97386.81;;;27.75;68.24
26699;BME280;14313;50.892;13.756;2022-08-19T11:48:24;97373.31;;;27.95;68.27
26699;BME280;14313;50.892;13.756;2022-08-19T11:50:52;97366.72;;;28.47;65.84
26699;BME280;14313;50.892;13.756;2022-08-19T11:53:19;97373.31;;;29.05;64.27
26699;BME280;14313;50.892;13.756;2022-08-19T11:55:46;97380.03;;;29.23;62.58
26699;BME280;14313;50.892;13.756;2022-08-19T11:58:13;97377.03;;;28.50;64.35
26699;BME280;14313;50.892;13.756;2022-08-19T12:00:39;97381.69;;;27.64;66.96
26699;BME280;14313;50.892;13.756;2022-08-19T12:03:05;97383.84;;;27.67;67.60
26699;BME280;14313;50.892;13.756;2022-08-19T12:05:30;97373.22;;;27.45;68.26
26699;BME280;14313;50.892;13.756;2022-08-19T12:07:55;97380.06;;;27.63;67.69
26699;BME280;14313;50.892;13.756;2022-08-19T12:10:21;97376.78;;;27.55;67.65
26699;BME280;14313;50.892;13.756;2022-08-19T12:12:47;97379.50;;;27.61;68.20
26699;BME280;14313;50.892;13.756;2022-08-19T12:15:13;97375.72;;;27.72;68.70
26699;BME280;14313;50.892;13.756;2022-08-19T12:17:39;97381.41;;;27.75;69.08
26699;BME280;14313;50.892;13.756;2022-08-19T12:20:06;97387.31;;;27.42;69.03
26699;BME280;14313;50.892;13.756;2022-08-19T12:22:32;97393.06;;;27.71;68.64
26699;BME280;14313;50.892;13.756;2022-08-19T12:24:57;97390.06;;;27.57;68.55
26699;BME280;14313;50.892;13.756;2022-08-19T12:27:23;97387.63;;;27.61;68.87
26699;BME280;14313;50.892;13.756;2022-08-19T12:29:48;97388.75;;;27.75;68.66
26699;BME280;14313;50.892;13.756;2022-08-19T12:32:16;97397.09;;;27.53;69.03
26699;BME280;14313;50.892;13.756;2022-08-19T12:34:42;97390.97;;;27.00;70.17
26699;BME280;14313;50.892;13.756;2022-08-19T12:37:07;97393.00;;;26.78;71.53
26699;BME280;14313;50.892;13.756;2022-08-19T12:39:35;97392.19;;;26.72;71.58
26699;BME280;14313;50.892;13.756;2022-08-19T12:42:00;97392.72;;;26.74;71.31
26699;BME280;14313;50.892;13.756;2022-08-19T12:44:26;97391.78;;;27.01;70.32
26699;BME280;14313;50.892;13.756;2022-08-19T12:46:51;97395.44;;;26.74;71.02
26699;BME280;14313;50.892;13.756;2022-08-19T12:49:16;97398.53;;;26.98;70.37
26699;BME280;14313;50.892;13.756;2022-08-19T12:51:42;97404.63;;;26.73;71.49
26699;BME280;14313;50.892;13.756;2022-08-19T12:54:07;97395.03;;;26.51;71.90